sensor_id;sensor_type;location;lat;lon;timestamp;temperature;humidity
13610;DHT22;6876;50.788;4.940;2022-07-19T00:00:34;21.70;99.90
13610;DHT22;6876;50.788;4.940;2022-07-19T00:03:22;21.70;99.90
13610;DHT22;6876;50.788;4.940;2022-07-19T00:06:10;21.60;99.90
13610;DHT22;6876;50.788;4.940;2022-07-19T00:08:57;21.50;99.90
13610;DHT22;6876;50.788;4.940;2022-07-19T00:11:44;21.50;99.90
13610;DHT22;6876;50.788;4.940;2022-07-19T00:14:32;21.50;99.90
13610;DHT22;6876;50.788;4.940;2022-07-19T00:17:19;21.30;99.90
13610;DHT22;6876;50.788;4.940;2022-07-19T00:20:08;21.20;99.90
13610;DHT22;6876;50.788;4.940;2022-07-19T00:22:56;21.30;99.90
13610;DHT22;6876;50.788;4.940;2022-07-19T00:25:43;21.40;99.90
13610;DHT22;6876;50.788;4.940;2022-07-19T00:28:30;21.40;99.90
13610;DHT22;6876;50.788;4.940;2022-07-19T00:31:18;21.20;99.90
13610;DHT22;6876;50.788;4.940;2022-07-19T00:34:05;21.10;99.90
13610;DHT22;6876;50.788;4.940;2022-07-19T00:36:53;21.00;99.90
13610;DHT22;6876;50.788;4.940;2022-07-19T00:39:41;20.90;99.90
13610;DHT22;6876;50.788;4.940;2022-07-19T00:42:28;21.00;99.90
13610;DHT22;6876;50.788;4.940;2022-07-19T00:45:15;21.00;99.90
13610;DHT22;6876;50.788;4.940;2022-07-19T00:48:03;20.80;99.90
13610;DHT22;6876;50.788;4.940;2022-07-19T00:50:51;20.90;99.90
13610;DHT22;6876;50.788;4.940;2022-07-19T00:53:40;20.80;99.90
13610;DHT22;6876;50.788;4.940;2022-07-19T00:56:30;20.80;99.90
13610;DHT22;6876;50.788;4.940;2022-07-19T00:59:19;20.70;99.90
13610;DHT22;6876;50.788;4.940;2022-07-19T01:02:06;20.50;99.90
13610;DHT22;6876;50.788;4.940;2022-07-19T01:04:53;20.50;99.90
13610;DHT22;6876;50.788;4.940;2022-07-19T01:07:41;20.40;99.90
13610;DHT22;6876;50.788;4.940;2022-07-19T01:10:30;20.40;99.90
13610;DHT22;6876;50.788;4.940;2022-07-19T01:13:17;20.30;99.90
13610;DHT22;6876;50.788;4.940;2022-07-19T01:16:05;20.30;99.90
13610;DHT22;6876;50.788;4.940;2022-07-19T01:18:52;20.30;99.90
13610;DHT22;6876;50.788;4.940;2022-07-19T01:21:41;20.30;99.90
13610;DHT22;6876;50.788;4.940;2022-07-19T01:24:29;20.30;99.90
13610;DHT22;6876;50.788;4.940;2022-07-19T01:27:16;20.30;99.90
13610;DHT22;6876;50.788;4.940;2022-07-19T01:30:10;20.30;99.90
13610;DHT22;6876;50.788;4.940;2022-07-19T01:32:57;20.40;99.90
13610;DHT22;6876;50.788;4.940;2022-07-19T01:35:45;20.40;99.90
13610;DHT22;6876;50.788;4.940;2022-07-19T01:38:33;20.50;99.90
13610;DHT22;6876;50.788;4.940;2022-07-19T01:41:21;20.50;99.90
13610;DHT22;6876;50.788;4.940;2022-07-19T01:44:08;20.40;99.90
13610;DHT22;6876;50.788;4.940;2022-07-19T01:46:55;20.30;99.90
13610;DHT22;6876;50.788;4.940;2022-07-19T01:49:44;20.20;99.90
13610;DHT22;6876;50.788;4.940;2022-07-19T01:52:31;20.10;99.90
13610;DHT22;6876;50.788;4.940;2022-07-19T01:55:20;20.10;99.90
13610;DHT22;6876;50.788;4.940;2022-07-19T01:58:07;20.00;99.90
13610;DHT22;6876;50.788;4.940;2022-07-19T02:00:55;19.90;99.90
13610;DHT22;6876;50.788;4.940;2022-07-19T02:03:42;19.90;99.90
13610;DHT22;6876;50.788;4.940;2022-07-19T02:06:29;20.10;99.90
13610;DHT22;6876;50.788;4.940;2022-07-19T02:09:17;20.20;99.90
13610;DHT22;6876;50.788;4.940;2022-07-19T02:12:05;20.20;99.90
13610;DHT22;6876;50.788;4.940;2022-07-19T02:14:53;20.10;99.90
13610;DHT22;6876;50.788;4.940;2022-07-19T02:17:40;19.90;99.90
13610;DHT22;6876;50.788;4.940;2022-07-19T02:20:27;19.70;99.90
13610;DHT22;6876;50.788;4.940;2022-07-19T02:23:14;19.70;99.90
13610;DHT22;6876;50.788;4.940;2022-07-19T02:26:02;19.70;99.90
13610;DHT22;6876;50.788;4.940;2022-07-19T02:28:50;19.60;99.90
13610;DHT22;6876;50.788;4.940;2022-07-19T02:31:37;19.60;99.90
13610;DHT22;6876;50.788;4.940;2022-07-19T02:34:25;19.50;99.90
13610;DHT22;6876;50.788;4.940;2022-07-19T02:37:12;19.50;99.90
13610;DHT22;6876;50.788;4.940;2022-07-19T02:39:59;19.40;99.90
13610;DHT22;6876;50.788;4.940;2022-07-19T02:42:46;19.20;99.90
13610;DHT22;6876;50.788;4.940;2022-07-19T02:45:35;19.20;99.90
13610;DHT22;6876;50.788;4.940;2022-07-19T02:48:22;19.20;99.90
13610;DHT22;6876;50.788;4.940;2022-07-19T02:51:10;19.30;99.90
13610;DHT22;6876;50.788;4.940;2022-07-19T02:53:58;19.40;99.90
13610;DHT22;6876;50.788;4.940;2022-07-19T02:56:45;19.40;99.90
13610;DHT22;6876;50.788;4.940;2022-07-19T02:59:32;19.30;99.90
13610;DHT22;6876;50.788;4.940;2022-07-19T03:02:21;19.10;99.90
13610;DHT22;6876;50.788;4.940;2022-07-19T03:05:08;19.10;99.90
13610;DHT22;6876;50.788;4.940;2022-07-19T03:07:56;19.00;99.90
13610;DHT22;6876;50.788;4.940;2022-07-19T03:10:43;19.00;99.90
13610;DHT22;6876;50.788;4.940;2022-07-19T03:13:31;18.90;99.90
13610;DHT22;6876;50.788;4.940;2022-07-19T03:16:18;18.90;99.90
13610;DHT22;6876;50.788;4.940;2022-07-19T03:19:06;19.00;99.90
13610;DHT22;6876;50.788;4.940;2022-07-19T03:21:54;19.00;99.90
13610;DHT22;6876;50.788;4.940;2022-07-19T03:24:42;18.90;99.90
13610;DHT22;6876;50.788;4.940;2022-07-19T03:27:29;18.90;99.90
13610;DHT22;6876;50.788;4.940;2022-07-19T03:30:16;19.00;99.90
13610;DHT22;6876;50.788;4.940;2022-07-19T03:33:03;18.90;99.90
13610;DHT22;6876;50.788;4.940;2022-07-19T03:35:52;18.80;99.90
13610;DHT22;6876;50.788;4.940;2022-07-19T03:38:39;18.80;99.90
13610;DHT22;6876;50.788;4.940;2022-07-19T03:41:26;18.80;99.90
13610;DHT22;6876;50.788;4.940;2022-07-19T03:44:14;18.80;99.90
13610;DHT22;6876;50.788;4.940;2022-07-19T03:47:01;19.00;99.90
13610;DHT22;6876;50.788;4.940;2022-07-19T03:49:48;18.90;99.90
13610;DHT22;6876;50.788;4.940;2022-07-19T03:52:37;18.90;99.90
13610;DHT22;6876;50.788;4.940;2022-07-19T03:55:24;19.00;99.90
13610;DHT22;6876;50.788;4.940;2022-07-19T03:58:11;18.90;99.90
13610;DHT22;6876;50.788;4.940;2022-07-19T04:00:59;18.90;99.90
13610;DHT22;6876;50.788;4.940;2022-07-19T04:03:46;18.90;99.90
13610;DHT22;6876;50.788;4.940;2022-07-19T04:06:34;19.00;99.90
13610;DHT22;6876;50.788;4.940;2022-07-19T04:09:22;19.10;99.90
13610;DHT22;6876;50.788;4.940;2022-07-19T04:12:10;19.30;99.90
13610;DHT22;6876;50.788;4.940;2022-07-19T04:14:57;19.30;99.90
13610;DHT22;6876;50.788;4.940;2022-07-19T04:17:44;19.50;99.90
13610;DHT22;6876;50.788;4.940;2022-07-19T04:20:32;19.60;99.90
13610;DHT22;6876;50.788;4.940;2022-07-19T04:23:19;19.60;99.90
13610;DHT22;6876;50.788;4.940;2022-07-19T04:26:08;19.60;99.90
13610;DHT22;6876;50.788;4.940;2022-07-19T04:28:55;19.70;99.90
13610;DHT22;6876;50.788;4.940;2022-07-19T04:31:42;19.60;99.90
13610;DHT22;6876;50.788;4.940;2022-07-19T04:34:29;19.50;99.90
13610;DHT22;6876;50.788;4.940;2022-07-19T04:37:17;19.50;99.90
13610;DHT22;6876;50.788;4.940;2022-07-19T04:40:05;19.60;99.90
13610;DHT22;6876;50.788;4.940;2022-07-19T04:42:54;19.80;99.90
13610;DHT22;6876;50.788;4.940;2022-07-19T04:45:41;20.30;99.90
13610;DHT22;6876;50.788;4.940;2022-07-19T04:48:30;20.70;99.90
13610;DHT22;6876;50.788;4.940;2022-07-19T04:51:17;21.10;99.90
13610;DHT22;6876;50.788;4.940;2022-07-19T04:54:05;21.70;99.90
13610;DHT22;6876;50.788;4.940;2022-07-19T04:56:53;22.20;99.90
13610;DHT22;6876;50.788;4.940;2022-07-19T04:59:41;22.80;99.90
13610;DHT22;6876;50.788;4.940;2022-07-19T05:02:29;23.10;99.90
13610;DHT22;6876;50.788;4.940;2022-07-19T05:05:16;23.50;99.90
13610;DHT22;6876;50.788;4.940;2022-07-19T05:08:04;23.60;99.90
13610;DHT22;6876;50.788;4.940;2022-07-19T05:10:51;23.80;99.90
13610;DHT22;6876;50.788;4.940;2022-07-19T05:13:38;24.10;99.90
13610;DHT22;6876;50.788;4.940;2022-07-19T05:16:27;24.50;99.90
13610;DHT22;6876;50.788;4.940;2022-07-19T05:19:14;24.70;99.90
13610;DHT22;6876;50.788;4.940;2022-07-19T05:22:02;24.90;99.90
13610;DHT22;6876;50.788;4.940;2022-07-19T05:24:49;25.10;99.90
13610;DHT22;6876;50.788;4.940;2022-07-19T05:27:37;25.20;99.90
13610;DHT22;6876;50.788;4.940;2022-07-19T05:30:25;25.60;99.90
13610;DHT22;6876;50.788;4.940;2022-07-19T05:33:13;26.20;99.90
13610;DHT22;6876;50.788;4.940;2022-07-19T05:36:02;26.60;99.90
13610;DHT22;6876;50.788;4.940;2022-07-19T05:38:49;26.80;99.90
13610;DHT22;6876;50.788;4.940;2022-07-19T05:41:37;27.20;99.90
13610;DHT22;6876;50.788;4.940;2022-07-19T05:44:24;27.50;99.90
13610;DHT22;6876;50.788;4.940;2022-07-19T05:47:11;27.80;99.90
13610;DHT22;6876;50.788;4.940;2022-07-19T05:50:00;28.30;99.90
13610;DHT22;6876;50.788;4.940;2022-07-19T05:52:47;28.60;99.90
13610;DHT22;6876;50.788;4.940;2022-07-19T05:55:34;29.00;99.90
13610;DHT22;6876;50.788;4.940;2022-07-19T05:58:22;29.20;99.90
13610;DHT22;6876;50.788;4.940;2022-07-19T06:01:10;29.50;99.90
13610;DHT22;6876;50.788;4.940;2022-07-19T06:04:08;29.80;99.90
13610;DHT22;6876;50.788;4.940;2022-07-19T06:06:56;30.00;99.90
13610;DHT22;6876;50.788;4.940;2022-07-19T06:09:43;30.30;99.90
13610;DHT22;6876;50.788;4.940;2022-07-19T06:12:31;30.60;99.90
13610;DHT22;6876;50.788;4.940;2022-07-19T06:15:18;30.90;99.00
13610;DHT22;6876;50.788;4.940;2022-07-19T06:18:06;31.10;98.70
13610;DHT22;6876;50.788;4.940;2022-07-19T06:20:53;31.50;98.10
13610;DHT22;6876;50.788;4.940;2022-07-19T06:23:42;31.80;97.00
13610;DHT22;6876;50.788;4.940;2022-07-19T06:26:29;32.00;96.10
13610;DHT22;6876;50.788;4.940;2022-07-19T06:29:17;32.40;95.00
13610;DHT22;6876;50.788;4.940;2022-07-19T06:32:04;32.60;94.50
13610;DHT22;6876;50.788;4.940;2022-07-19T06:34:51;32.80;94.30
13610;DHT22;6876;50.788;4.940;2022-07-19T06:37:39;33.00;93.70
13610;DHT22;6876;50.788;4.940;2022-07-19T06:40:28;33.10;93.10
13610;DHT22;6876;50.788;4.940;2022-07-19T06:43:15;33.40;92.60
13610;DHT22;6876;50.788;4.940;2022-07-19T06:46:03;33.60;91.20
13610;DHT22;6876;50.788;4.940;2022-07-19T06:48:51;33.90;89.90
13610;DHT22;6876;50.788;4.940;2022-07-19T06:51:38;34.10;88.70
13610;DHT22;6876;50.788;4.940;2022-07-19T06:54:25;34.30;87.30
13610;DHT22;6876;50.788;4.940;2022-07-19T06:57:14;34.60;86.80
13610;DHT22;6876;50.788;4.940;2022-07-19T07:00:01;34.80;86.20
13610;DHT22;6876;50.788;4.940;2022-07-19T07:02:49;35.20;84.50
13610;DHT22;6876;50.788;4.940;2022-07-19T07:05:37;35.20;83.60
13610;DHT22;6876;50.788;4.940;2022-07-19T07:08:24;35.50;82.60
13610;DHT22;6876;50.788;4.940;2022-07-19T07:11:11;35.80;82.10
13610;DHT22;6876;50.788;4.940;2022-07-19T07:14:00;35.90;80.40
13610;DHT22;6876;50.788;4.940;2022-07-19T07:16:47;36.20;80.20
13610;DHT22;6876;50.788;4.940;2022-07-19T07:19:37;36.40;79.50
13610;DHT22;6876;50.788;4.940;2022-07-19T07:22:24;36.60;77.80
13610;DHT22;6876;50.788;4.940;2022-07-19T07:25:11;36.90;75.60
13610;DHT22;6876;50.788;4.940;2022-07-19T07:27:58;37.00;74.10
13610;DHT22;6876;50.788;4.940;2022-07-19T07:30:47;37.20;72.50
13610;DHT22;6876;50.788;4.940;2022-07-19T07:33:34;37.60;71.90
13610;DHT22;6876;50.788;4.940;2022-07-19T07:36:21;37.90;72.20
13610;DHT22;6876;50.788;4.940;2022-07-19T07:39:09;38.20;71.70
13610;DHT22;6876;50.788;4.940;2022-07-19T07:41:56;38.20;65.80
13610;DHT22;6876;50.788;4.940;2022-07-19T07:44:43;38.40;66.40
13610;DHT22;6876;50.788;4.940;2022-07-19T07:47:32;38.50;65.70
13610;DHT22;6876;50.788;4.940;2022-07-19T07:50:21;38.70;63.80
13610;DHT22;6876;50.788;4.940;2022-07-19T07:53:08;39.00;61.60
13610;DHT22;6876;50.788;4.940;2022-07-19T07:55:55;39.10;62.70
13610;DHT22;6876;50.788;4.940;2022-07-19T07:58:43;39.30;60.60
13610;DHT22;6876;50.788;4.940;2022-07-19T08:01:30;39.50;60.00
13610;DHT22;6876;50.788;4.940;2022-07-19T08:04:19;39.90;58.40
13610;DHT22;6876;50.788;4.940;2022-07-19T08:07:06;40.20;57.50
13610;DHT22;6876;50.788;4.940;2022-07-19T08:09:53;40.20;56.80
13610;DHT22;6876;50.788;4.940;2022-07-19T08:12:40;40.20;55.80
13610;DHT22;6876;50.788;4.940;2022-07-19T08:15:28;40.20;55.30
13610;DHT22;6876;50.788;4.940;2022-07-19T08:18:15;40.40;54.80
13610;DHT22;6876;50.788;4.940;2022-07-19T08:21:04;40.80;53.90
13610;DHT22;6876;50.788;4.940;2022-07-19T08:23:52;41.10;53.60
13610;DHT22;6876;50.788;4.940;2022-07-19T08:26:39;41.10;52.60
13610;DHT22;6876;50.788;4.940;2022-07-19T08:29:27;41.60;52.70
13610;DHT22;6876;50.788;4.940;2022-07-19T08:32:14;41.60;51.30
13610;DHT22;6876;50.788;4.940;2022-07-19T08:35:01;41.70;52.00
13610;DHT22;6876;50.788;4.940;2022-07-19T08:37:50;41.90;50.90
13610;DHT22;6876;50.788;4.940;2022-07-19T08:40:41;41.80;50.30
13610;DHT22;6876;50.788;4.940;2022-07-19T08:43:29;42.00;49.60
13610;DHT22;6876;50.788;4.940;2022-07-19T08:46:19;42.00;49.60
13610;DHT22;6876;50.788;4.940;2022-07-19T08:49:07;42.30;48.90
13610;DHT22;6876;50.788;4.940;2022-07-19T08:51:55;42.70;48.50
13610;DHT22;6876;50.788;4.940;2022-07-19T08:54:45;43.00;48.90
13610;DHT22;6876;50.788;4.940;2022-07-19T08:57:33;43.10;47.90
13610;DHT22;6876;50.788;4.940;2022-07-19T09:00:38;43.40;47.00
13610;DHT22;6876;50.788;4.940;2022-07-19T09:03:25;43.20;46.10
13610;DHT22;6876;50.788;4.940;2022-07-19T09:06:13;43.30;46.30
13610;DHT22;6876;50.788;4.940;2022-07-19T09:09:03;43.60;46.10
13610;DHT22;6876;50.788;4.940;2022-07-19T09:11:53;43.70;46.70
13610;DHT22;6876;50.788;4.940;2022-07-19T09:14:41;44.40;45.10
13610;DHT22;6876;50.788;4.940;2022-07-19T09:17:28;44.50;44.70
13610;DHT22;6876;50.788;4.940;2022-07-19T09:20:26;44.40;43.80
13610;DHT22;6876;50.788;4.940;2022-07-19T09:23:13;44.20;44.40
13610;DHT22;6876;50.788;4.940;2022-07-19T09:26:05;44.00;42.60
13610;DHT22;6876;50.788;4.940;2022-07-19T09:28:54;44.20;42.90
13610;DHT22;6876;50.788;4.940;2022-07-19T09:32:03;44.30;42.70
13610;DHT22;6876;50.788;4.940;2022-07-19T09:34:52;44.30;41.90
13610;DHT22;6876;50.788;4.940;2022-07-19T09:37:39;43.80;41.50
13610;DHT22;6876;50.788;4.940;2022-07-19T09:40:30;43.60;42.20
13610;DHT22;6876;50.788;4.940;2022-07-19T09:43:19;43.40;42.20
13610;DHT22;6876;50.788;4.940;2022-07-19T09:46:27;43.80;42.40
13610;DHT22;6876;50.788;4.940;2022-07-19T09:49:16;43.80;41.80
13610;DHT22;6876;50.788;4.940;2022-07-19T09:52:04;43.80;41.20
13610;DHT22;6876;50.788;4.940;2022-07-19T09:54:51;43.90;42.10
13610;DHT22;6876;50.788;4.940;2022-07-19T09:57:40;44.40;41.50
13610;DHT22;6876;50.788;4.940;2022-07-19T10:00:28;44.10;41.10
13610;DHT22;6876;50.788;4.940;2022-07-19T10:03:17;43.90;40.70
13610;DHT22;6876;50.788;4.940;2022-07-19T10:06:05;43.90;41.00
13610;DHT22;6876;50.788;4.940;2022-07-19T10:08:53;43.60;41.10
13610;DHT22;6876;50.788;4.940;2022-07-19T10:11:42;43.40;39.80
13610;DHT22;6876;50.788;4.940;2022-07-19T10:14:30;42.90;39.70
13610;DHT22;6876;50.788;4.940;2022-07-19T10:17:25;42.50;39.00
13610;DHT22;6876;50.788;4.940;2022-07-19T10:20:19;42.30;39.70
13610;DHT22;6876;50.788;4.940;2022-07-19T10:23:08;42.30;39.70
13610;DHT22;6876;50.788;4.940;2022-07-19T10:25:55;42.00;39.30
13610;DHT22;6876;50.788;4.940;2022-07-19T10:28:42;42.20;38.80
13610;DHT22;6876;50.788;4.940;2022-07-19T10:31:31;42.30;40.50
13610;DHT22;6876;50.788;4.940;2022-07-19T10:34:21;42.50;39.00
13610;DHT22;6876;50.788;4.940;2022-07-19T10:37:10;42.70;40.00
13610;DHT22;6876;50.788;4.940;2022-07-19T10:39:58;43.00;39.10
13610;DHT22;6876;50.788;4.940;2022-07-19T10:43:03;42.80;37.90
13610;DHT22;6876;50.788;4.940;2022-07-19T10:46:10;42.70;37.90
13610;DHT22;6876;50.788;4.940;2022-07-19T10:48:59;42.60;38.80
13610;DHT22;6876;50.788;4.940;2022-07-19T10:51:46;42.20;38.60
13610;DHT22;6876;50.788;4.940;2022-07-19T10:54:36;42.20;38.30
13610;DHT22;6876;50.788;4.940;2022-07-19T10:57:35;41.60;38.10
13610;DHT22;6876;50.788;4.940;2022-07-19T11:00:24;41.60;38.10
13610;DHT22;6876;50.788;4.940;2022-07-19T11:03:29;41.80;38.00
13610;DHT22;6876;50.788;4.940;2022-07-19T11:06:21;41.90;38.00
13610;DHT22;6876;50.788;4.940;2022-07-19T11:09:09;41.90;38.20
13610;DHT22;6876;50.788;4.940;2022-07-19T11:11:58;41.40;39.00
13610;DHT22;6876;50.788;4.940;2022-07-19T11:14:45;41.50;39.40
13610;DHT22;6876;50.788;4.940;2022-07-19T11:17:32;41.40;38.90
13610;DHT22;6876;50.788;4.940;2022-07-19T11:20:23;41.50;39.10
13610;DHT22;6876;50.788;4.940;2022-07-19T11:23:17;41.40;39.00
13610;DHT22;6876;50.788;4.940;2022-07-19T11:26:06;41.20;38.70
13610;DHT22;6876;50.788;4.940;2022-07-19T11:28:55;41.20;38.70
13610;DHT22;6876;50.788;4.940;2022-07-19T11:31:46;41.50;38.80
13610;DHT22;6876;50.788;4.940;2022-07-19T11:34:33;41.50;39.50
13610;DHT22;6876;50.788;4.940;2022-07-19T11:37:23;41.80;39.00
13610;DHT22;6876;50.788;4.940;2022-07-19T11:40:12;41.60;39.10
13610;DHT22;6876;50.788;4.940;2022-07-19T11:43:04;41.30;39.50
13610;DHT22;6876;50.788;4.940;2022-07-19T11:45:53;40.90;39.30
13610;DHT22;6876;50.788;4.940;2022-07-19T11:48:40;40.90;39.60
13610;DHT22;6876;50.788;4.940;2022-07-19T11:51:31;40.70;40.00
13610;DHT22;6876;50.788;4.940;2022-07-19T11:54:19;40.70;39.80
13610;DHT22;6876;50.788;4.940;2022-07-19T11:57:22;40.70;39.00
13610;DHT22;6876;50.788;4.940;2022-07-19T12:00:11;40.60;40.20
13610;DHT22;6876;50.788;4.940;2022-07-19T12:03:01;40.60;39.70
13610;DHT22;6876;50.788;4.940;2022-07-19T12:05:55;40.40;39.10
13610;DHT22;6876;50.788;4.940;2022-07-19T12:08:43;40.10;39.00
13610;DHT22;6876;50.788;4.940;2022-07-19T12:11:38;39.90;40.30
13610;DHT22;6876;50.788;4.940;2022-07-19T12:14:26;40.10;40.20
13610;DHT22;6876;50.788;4.940;2022-07-19T12:17:16;39.90;39.00
13610;DHT22;6876;50.788;4.940;2022-07-19T12:20:10;40.00;40.00
13610;DHT22;6876;50.788;4.940;2022-07-19T12:23:11;40.00;40.10
13610;DHT22;6876;50.788;4.940;2022-07-19T12:26:02;40.00;39.00
13610;DHT22;6876;50.788;4.940;2022-07-19T12:28:49;39.90;38.60
13610;DHT22;6876;50.788;4.940;2022-07-19T12:31:43;39.90;38.80
13610;DHT22;6876;50.788;4.940;2022-07-19T12:34:42;40.20;38.80
13610;DHT22;6876;50.788;4.940;2022-07-19T12:37:33;40.00;38.80
13610;DHT22;6876;50.788;4.940;2022-07-19T12:40:23;39.80;38.40
13610;DHT22;6876;50.788;4.940;2022-07-19T12:43:11;39.90;38.60
13610;DHT22;6876;50.788;4.940;2022-07-19T12:46:01;39.90;37.80
13610;DHT22;6876;50.788;4.940;2022-07-19T12:48:49;39.90;38.60
13610;DHT22;6876;50.788;4.940;2022-07-19T12:51:36;40.00;38.80
13610;DHT22;6876;50.788;4.940;2022-07-19T12:54:30;39.90;38.50
13610;DHT22;6876;50.788;4.940;2022-07-19T12:57:17;39.80;39.60
13610;DHT22;6876;50.788;4.940;2022-07-19T13:00:06;39.70;38.20
13610;DHT22;6876;50.788;4.940;2022-07-19T13:02:53;39.90;38.40
13610;DHT22;6876;50.788;4.940;2022-07-19T13:05:41;39.80;37.50
13610;DHT22;6876;50.788;4.940;2022-07-19T13:08:28;39.90;38.30
13610;DHT22;6876;50.788;4.940;2022-07-19T13:11:17;40.00;38.00
13610;DHT22;6876;50.788;4.940;2022-07-19T13:14:04;39.60;37.60
13610;DHT22;6876;50.788;4.940;2022-07-19T13:16:52;39.40;37.30
13610;DHT22;6876;50.788;4.940;2022-07-19T13:19:40;39.30;37.00
13610;DHT22;6876;50.788;4.940;2022-07-19T13:22:27;39.40;36.80
13610;DHT22;6876;50.788;4.940;2022-07-19T13:25:14;39.40;38.10
13610;DHT22;6876;50.788;4.940;2022-07-19T13:28:04;39.50;36.00
13610;DHT22;6876;50.788;4.940;2022-07-19T13:30:51;39.60;36.70
13610;DHT22;6876;50.788;4.940;2022-07-19T13:33:39;39.40;35.30
13610;DHT22;6876;50.788;4.940;2022-07-19T13:36:26;39.60;36.00
13610;DHT22;6876;50.788;4.940;2022-07-19T13:39:13;39.50;35.80
13610;DHT22;6876;50.788;4.940;2022-07-19T13:42:01;39.50;36.00
13610;DHT22;6876;50.788;4.940;2022-07-19T13:44:50;39.60;37.20
13610;DHT22;6876;50.788;4.940;2022-07-19T13:47:37;39.80;36.90
13610;DHT22;6876;50.788;4.940;2022-07-19T13:50:25;39.60;36.20
13610;DHT22;6876;50.788;4.940;2022-07-19T13:53:12;39.40;35.70
13610;DHT22;6876;50.788;4.940;2022-07-19T13:56:00;39.30;36.40
13610;DHT22;6876;50.788;4.940;2022-07-19T13:58:47;39.40;36.40
13610;DHT22;6876;50.788;4.940;2022-07-19T14:01:36;39.70;36.10
13610;DHT22;6876;50.788;4.940;2022-07-19T14:04:23;39.60;34.50
13610;DHT22;6876;50.788;4.940;2022-07-19T14:07:10;39.20;34.00
13610;DHT22;6876;50.788;4.940;2022-07-19T14:09:58;39.00;35.20
13610;DHT22;6876;50.788;4.940;2022-07-19T14:12:45;39.10;35.30
13610;DHT22;6876;50.788;4.940;2022-07-19T14:15:32;39.30;35.10
13610;DHT22;6876;50.788;4.940;2022-07-19T14:18:21;39.30;34.80
13610;DHT22;6876;50.788;4.940;2022-07-19T14:21:08;39.40;34.80
13610;DHT22;6876;50.788;4.940;2022-07-19T14:23:57;39.40;34.20
13610;DHT22;6876;50.788;4.940;2022-07-19T14:26:45;39.20;34.10
13610;DHT22;6876;50.788;4.940;2022-07-19T14:29:32;39.30;34.10
13610;DHT22;6876;50.788;4.940;2022-07-19T14:32:20;39.20;33.70
13610;DHT22;6876;50.788;4.940;2022-07-19T14:35:08;39.20;34.10
13610;DHT22;6876;50.788;4.940;2022-07-19T14:37:56;39.30;35.00
13610;DHT22;6876;50.788;4.940;2022-07-19T14:40:43;39.30;35.40
13610;DHT22;6876;50.788;4.940;2022-07-19T14:43:31;39.30;35.80
13610;DHT22;6876;50.788;4.940;2022-07-19T14:46:18;39.30;36.00
13610;DHT22;6876;50.788;4.940;2022-07-19T14:49:05;39.50;34.40
13610;DHT22;6876;50.788;4.940;2022-07-19T14:51:54;39.40;33.70
13610;DHT22;6876;50.788;4.940;2022-07-19T14:54:41;39.20;33.70
13610;DHT22;6876;50.788;4.940;2022-07-19T14:57:29;39.10;33.50
13610;DHT22;6876;50.788;4.940;2022-07-19T15:00:17;39.00;33.60
13610;DHT22;6876;50.788;4.940;2022-07-19T15:03:04;39.00;34.60
13610;DHT22;6876;50.788;4.940;2022-07-19T15:05:51;39.00;35.00
13610;DHT22;6876;50.788;4.940;2022-07-19T15:08:40;39.10;35.60
13610;DHT22;6876;50.788;4.940;2022-07-19T15:11:28;39.00;35.10
13610;DHT22;6876;50.788;4.940;2022-07-19T15:14:18;39.00;34.80
13610;DHT22;6876;50.788;4.940;2022-07-19T15:17:06;39.00;35.80
13610;DHT22;6876;50.788;4.940;2022-07-19T15:19:53;39.00;35.40
13610;DHT22;6876;50.788;4.940;2022-07-19T15:22:41;39.00;36.70
13610;DHT22;6876;50.788;4.940;2022-07-19T15:25:29;39.00;35.50
13610;DHT22;6876;50.788;4.940;2022-07-19T15:28:17;38.90;34.90
13610;DHT22;6876;50.788;4.940;2022-07-19T15:31:04;39.00;36.70
13610;DHT22;6876;50.788;4.940;2022-07-19T15:33:52;38.90;36.80
13610;DHT22;6876;50.788;4.940;2022-07-19T15:36:39;39.00;36.50
13610;DHT22;6876;50.788;4.940;2022-07-19T15:39:26;39.00;35.20
13610;DHT22;6876;50.788;4.940;2022-07-19T15:42:15;38.80;36.00
13610;DHT22;6876;50.788;4.940;2022-07-19T15:45:03;38.70;35.60
13610;DHT22;6876;50.788;4.940;2022-07-19T15:47:51;38.60;36.00
13610;DHT22;6876;50.788;4.940;2022-07-19T15:50:38;38.70;35.40
13610;DHT22;6876;50.788;4.940;2022-07-19T15:53:26;38.70;35.40
13610;DHT22;6876;50.788;4.940;2022-07-19T15:56:14;38.80;36.40
13610;DHT22;6876;50.788;4.940;2022-07-19T15:59:03;38.80;36.70
13610;DHT22;6876;50.788;4.940;2022-07-19T16:01:50;38.80;35.80
13610;DHT22;6876;50.788;4.940;2022-07-19T16:04:37;38.80;36.60
13610;DHT22;6876;50.788;4.940;2022-07-19T16:07:25;38.60;36.10
13610;DHT22;6876;50.788;4.940;2022-07-19T16:10:13;38.50;35.40
13610;DHT22;6876;50.788;4.940;2022-07-19T16:13:01;38.60;36.00
13610;DHT22;6876;50.788;4.940;2022-07-19T16:15:49;38.50;35.30
13610;DHT22;6876;50.788;4.940;2022-07-19T16:18:37;38.50;36.40
13610;DHT22;6876;50.788;4.940;2022-07-19T16:21:27;38.50;36.00
13610;DHT22;6876;50.788;4.940;2022-07-19T16:24:14;38.40;37.20
13610;DHT22;6876;50.788;4.940;2022-07-19T16:27:02;38.40;35.80
13610;DHT22;6876;50.788;4.940;2022-07-19T16:29:49;38.30;36.30
13610;DHT22;6876;50.788;4.940;2022-07-19T16:32:38;38.30;37.90
13610;DHT22;6876;50.788;4.940;2022-07-19T16:35:25;38.30;37.80
13610;DHT22;6876;50.788;4.940;2022-07-19T16:38:24;38.20;36.10
13610;DHT22;6876;50.788;4.940;2022-07-19T16:41:12;38.10;36.20
13610;DHT22;6876;50.788;4.940;2022-07-19T16:43:59;38.10;36.70
13610;DHT22;6876;50.788;4.940;2022-07-19T16:46:46;38.10;36.80
13610;DHT22;6876;50.788;4.940;2022-07-19T16:49:35;38.10;37.50
13610;DHT22;6876;50.788;4.940;2022-07-19T16:52:24;38.00;36.50
13610;DHT22;6876;50.788;4.940;2022-07-19T16:55:11;38.00;37.60
13610;DHT22;6876;50.788;4.940;2022-07-19T16:57:58;38.00;36.80
13610;DHT22;6876;50.788;4.940;2022-07-19T17:00:46;37.90;37.30
13610;DHT22;6876;50.788;4.940;2022-07-19T17:03:33;37.80;36.60
13610;DHT22;6876;50.788;4.940;2022-07-19T17:06:22;37.80;37.00
13610;DHT22;6876;50.788;4.940;2022-07-19T17:09:09;37.80;36.50
13610;DHT22;6876;50.788;4.940;2022-07-19T17:11:57;37.80;36.50
13610;DHT22;6876;50.788;4.940;2022-07-19T17:14:44;37.80;36.50
13610;DHT22;6876;50.788;4.940;2022-07-19T17:17:31;37.80;36.20
13610;DHT22;6876;50.788;4.940;2022-07-19T17:20:19;37.70;36.10
13610;DHT22;6876;50.788;4.940;2022-07-19T17:23:08;37.60;36.80
13610;DHT22;6876;50.788;4.940;2022-07-19T17:25:55;37.60;36.90
13610;DHT22;6876;50.788;4.940;2022-07-19T17:28:42;37.60;36.90
13610;DHT22;6876;50.788;4.940;2022-07-19T17:31:30;37.50;37.10
13610;DHT22;6876;50.788;4.940;2022-07-19T17:34:17;37.50;37.60
13610;DHT22;6876;50.788;4.940;2022-07-19T17:37:04;37.40;37.30
13610;DHT22;6876;50.788;4.940;2022-07-19T17:39:53;37.40;37.00
13610;DHT22;6876;50.788;4.940;2022-07-19T17:42:40;37.30;36.80
13610;DHT22;6876;50.788;4.940;2022-07-19T17:45:28;37.20;36.70
13610;DHT22;6876;50.788;4.940;2022-07-19T17:48:15;37.10;36.80
13610;DHT22;6876;50.788;4.940;2022-07-19T17:51:02;37.10;36.90
13610;DHT22;6876;50.788;4.940;2022-07-19T17:53:50;37.00;36.90
13610;DHT22;6876;50.788;4.940;2022-07-19T17:56:38;36.90;36.70
13610;DHT22;6876;50.788;4.940;2022-07-19T17:59:25;36.80;36.60